Chippewa, MI

6:14 AM EDT on March 26, 2017 (GMT -0400)
Chippewa County International

Weather History for KCIU - November, 2012

Change the Weather History Date:

Monday, November 19, 2012

  Actual Average Record
Temperature  
Mean Temperature 42 °F -  
Max Temperature 48 °F 38 °F 53 °F (1991)
Min Temperature 35 °F 24 °F 3 °F (2014)
Degree Days  
Heating Degree Days 24    
Moisture  
Dew Point 39 °F    
Average Humidity 91    
Maximum Humidity 100    
Minimum Humidity 66    
Precipitation  
Precipitation 0.00 in - - ()
Sea Level Pressure  
Sea Level Pressure 30.25 in    
Wind  
Wind Speed 8 mph (SE)    
Max Wind Speed 12 mph    
Max Gust Speed -    
Visibility 7 miles    
Events      
Averages and records for this station are not official NWS values.
T = Trace of Precipitation, MM = Missing Value Source: NWS Daily Summary

Daily Weather History Graph

Daily Weather History Graph

Search for Another Location

Airport or City:

Trip Planner

Search our weather history database for the weather conditions in past years. The results will help you decide how hot, cold, wet, or windy it might be!

Date:

Astronomy

Nov. 19, 2012 Rise Set
Actual Time 7:45 AM EST 5:01 PM EST
Civil Twilight 7:12 AM EST 5:34 PM EST
Nautical Twilight 6:35 AM EST 6:10 PM EST
Astronomical Twilight 5:59 AM EST 6:46 PM EST
Moon 12:40 PM EST (11/19) 11:36 PM EST (11/19)
Length of Visible Light 10h 21m
Length of Day
9h 15m
Waxing Crescent, 40% of the Moon is Illuminated
Nov 19
Waxing Crescent
Nov 20
First Quarter
Nov 28
Full
Dec 6
Last Quarter
Dec 13
New

Hourly Weather History & Observations

Time (EST) Temp. Windchill Dew Point Humidity Pressure Visibility Wind Dir Wind Speed Gust Speed Precip Events Conditions
12:15 AM 37.4 °F 31.4 °F 37.4 °F 100% 30.36 in 8.0 mi SE 8.1 mph - N/A   Clear
12:35 AM 37.4 °F 31.4 °F 37.4 °F 100% 30.36 in 7.0 mi SE 8.1 mph - N/A   Clear
12:55 AM 37.4 °F 30.8 °F 37.4 °F 100% 30.36 in 6.0 mi SE 9.2 mph - N/A   Clear
1:15 AM 37.4 °F 30.8 °F 37.4 °F 100% 30.35 in 5.0 mi SSE 9.2 mph - N/A   Clear
1:35 AM 37.4 °F 30.8 °F 37.4 °F 100% 30.35 in 5.0 mi SSE 9.2 mph - N/A   Clear
1:55 AM 37.4 °F 30.8 °F 37.4 °F 100% 30.34 in 5.0 mi SE 9.2 mph - N/A   Clear
2:15 AM 35.6 °F 28.6 °F 35.6 °F 100% 30.34 in 5.0 mi SE 9.2 mph - N/A   Clear
2:35 AM 37.4 °F 31.4 °F 37.4 °F 100% 30.34 in 5.0 mi SE 8.1 mph - N/A   Clear
2:55 AM 37.4 °F 32.1 °F 35.6 °F 93% 30.35 in 5.0 mi SE 6.9 mph - N/A   Clear
3:15 AM 37.4 °F 32.1 °F 37.4 °F 100% 30.35 in 4.0 mi ESE 6.9 mph - N/A   Clear
3:35 AM 37.4 °F 32.1 °F 35.6 °F 93% 30.34 in 4.0 mi ESE 6.9 mph - N/A   Clear
3:55 AM 37.4 °F 31.4 °F 35.6 °F 93% 30.34 in 3.0 mi ESE 8.1 mph - N/A   Clear
4:15 AM 37.4 °F 31.4 °F 35.6 °F 93% 30.33 in 3.0 mi ESE 8.1 mph - N/A   Clear
4:35 AM 35.6 °F 29.2 °F 35.6 °F 100% 30.33 in 2.5 mi ESE 8.1 mph - N/A   Clear
4:55 AM 35.6 °F 28.6 °F 35.6 °F 100% 30.33 in 3.0 mi SE 9.2 mph - N/A   Mostly Cloudy
5:15 AM 37.4 °F 32.1 °F 37.4 °F 100% 30.32 in 3.0 mi SE 6.9 mph - N/A   Overcast
5:35 AM 39.2 °F 33.6 °F 39.2 °F 100% 30.32 in 5.0 mi SE 8.1 mph - N/A   Overcast
5:55 AM 37.4 °F 30.8 °F 37.4 °F 100% 30.32 in 5.0 mi SE 9.2 mph - N/A   Overcast
6:15 AM 37.4 °F 31.4 °F 37.4 °F 100% 30.32 in 5.0 mi SE 8.1 mph - N/A   Overcast
6:35 AM 37.4 °F 31.4 °F 37.4 °F 100% 30.31 in 5.0 mi SE 8.1 mph - N/A   Overcast
6:55 AM 37.4 °F 32.8 °F 35.6 °F 93% 30.31 in 5.0 mi SE 5.8 mph - N/A   Overcast
7:15 AM 37.4 °F 32.1 °F 37.4 °F 100% 30.31 in 5.0 mi SE 6.9 mph - N/A   Mostly Cloudy
7:35 AM 35.6 °F 28.6 °F 35.6 °F 100% 30.31 in 4.0 mi SE 9.2 mph - N/A   Clear
7:55 AM 35.6 °F 29.9 °F 33.8 °F 93% 30.30 in 3.0 mi SE 6.9 mph - N/A   Clear
8:15 AM 35.6 °F 29.9 °F 35.6 °F 100% 30.30 in 3.0 mi SE 6.9 mph - N/A   Mostly Cloudy
8:35 AM 37.4 °F 32.1 °F 37.4 °F 100% 30.30 in 3.0 mi SE 6.9 mph - N/A   Mostly Cloudy
8:55 AM 39.2 °F 33.0 °F 37.4 °F 93% 30.29 in 5.0 mi SE 9.2 mph - N/A   Overcast
9:15 AM 39.2 °F 33.0 °F 39.2 °F 100% 30.29 in 7.0 mi SE 9.2 mph - N/A   Scattered Clouds
9:35 AM 41.0 °F 34.3 °F 39.2 °F 93% 30.29 in 7.0 mi SSE 11.5 mph - N/A   Clear
9:55 AM 41.0 °F 35.2 °F 39.2 °F 93% 30.29 in 7.0 mi SE 9.2 mph - N/A   Clear
10:15 AM 42.8 °F 37.5 °F 39.2 °F 87% 30.28 in 9.0 mi SE 9.2 mph - N/A   Clear
10:35 AM 44.6 °F 39.7 °F 39.2 °F 81% 30.28 in 9.0 mi SSE 9.2 mph - N/A   Clear
10:55 AM 46.4 °F 42.4 °F 41.0 °F 81% 30.28 in 10.0 mi SSE 8.1 mph - N/A   Clear
11:35 AM 48.2 °F - 39.2 °F 71% 30.27 in 10.0 mi SE 11.5 mph - N/A   Clear
11:55 AM 48.2 °F - 39.2 °F 71% 30.25 in 10.0 mi SE 11.5 mph - N/A   Clear
12:15 PM 48.2 °F - 39.2 °F 71% 30.25 in 10.0 mi SE 10.4 mph - N/A   Clear
12:35 PM 48.2 °F - 37.4 °F 66% 30.24 in 10.0 mi SE 11.5 mph - N/A   Clear
12:55 PM 48.2 °F - 37.4 °F 66% 30.23 in 10.0 mi SE 11.5 mph - N/A   Clear
1:15 PM 48.2 °F - 37.4 °F 66% 30.22 in 10.0 mi SE 11.5 mph - N/A   Clear
1:35 PM 48.2 °F - 37.4 °F 66% 30.22 in 10.0 mi SE 10.4 mph - N/A   Clear
1:55 PM 48.2 °F - 37.4 °F 66% 30.22 in 10.0 mi ESE 11.5 mph - N/A   Partly Cloudy
2:15 PM 46.4 °F 42.4 °F 37.4 °F 71% 30.22 in 10.0 mi ESE 8.1 mph - N/A   Mostly Cloudy
2:35 PM 46.4 °F 41.1 °F 37.4 °F 71% 30.21 in 10.0 mi SE 11.5 mph - N/A   Mostly Cloudy
3:15 PM 46.4 °F 41.1 °F 37.4 °F 71% 30.19 in 10.0 mi SE 11.5 mph - N/A   Mostly Cloudy
3:35 PM 46.4 °F 41.5 °F 37.4 °F 71% 30.19 in 10.0 mi SE 10.4 mph - N/A   Scattered Clouds
3:55 PM 44.6 °F 39.2 °F 39.2 °F 81% 30.19 in 10.0 mi SE 10.4 mph - N/A   Mostly Cloudy
4:15 PM 44.6 °F 41.4 °F 39.2 °F 81% 30.19 in 10.0 mi ESE 5.8 mph - N/A   Overcast
4:35 PM 44.6 °F 39.2 °F 39.2 °F 81% 30.19 in 10.0 mi SE 10.4 mph - N/A   Mostly Cloudy
4:55 PM 44.6 °F 39.7 °F 41.0 °F 87% 30.19 in 10.0 mi ESE 9.2 mph - N/A   Partly Cloudy
5:15 PM 44.6 °F 40.2 °F 41.0 °F 87% 30.18 in 10.0 mi ESE 8.1 mph - N/A   Scattered Clouds
5:35 PM 44.6 °F 40.7 °F 41.0 °F 87% 30.19 in 10.0 mi ESE 6.9 mph - N/A   Mostly Cloudy
5:55 PM 42.8 °F 40.1 °F 39.2 °F 87% 30.19 in 10.0 mi East 4.6 mph - N/A   Scattered Clouds
6:15 PM 42.8 °F 39.3 °F 41.0 °F 93% 30.18 in 10.0 mi East 5.8 mph - N/A   Mostly Cloudy
6:35 PM 42.8 °F 39.3 °F 41.0 °F 93% 30.18 in 9.0 mi East 5.8 mph - N/A   Mostly Cloudy
7:15 PM 42.8 °F 38.0 °F 42.8 °F 100% 30.17 in 8.0 mi East 8.1 mph - N/A   Overcast
7:35 PM 42.8 °F 38.6 °F 42.8 °F 100% 30.17 in 8.0 mi East 6.9 mph - N/A   Overcast
7:55 PM 42.8 °F 38.6 °F 42.8 °F 100% 30.16 in 7.0 mi ESE 6.9 mph - N/A   Overcast
8:15 PM 42.8 °F 38.0 °F 42.8 °F 100% 30.16 in 7.0 mi ESE 8.1 mph - N/A   Overcast
8:35 PM 42.8 °F 38.6 °F 42.8 °F 100% 30.15 in 7.0 mi East 6.9 mph - N/A   Overcast
8:55 PM 42.8 °F 39.3 °F 42.8 °F 100% 30.15 in 7.0 mi East 5.8 mph - N/A   Mostly Cloudy
9:15 PM 42.8 °F 38.6 °F 42.8 °F 100% 30.14 in 7.0 mi East 6.9 mph - N/A   Mostly Cloudy
9:35 PM 42.8 °F 38.6 °F 42.8 °F 100% 30.14 in 6.0 mi ESE 6.9 mph - N/A   Overcast
9:55 PM 42.8 °F 38.6 °F 42.8 °F 100% 30.14 in 7.0 mi East 6.9 mph - N/A   Overcast
10:15 PM 42.8 °F 38.0 °F 42.8 °F 100% 30.13 in 7.0 mi ESE 8.1 mph - N/A   Overcast
10:35 PM 42.8 °F 38.6 °F 42.8 °F 100% 30.13 in 7.0 mi ESE 6.9 mph - N/A   Overcast
10:55 PM 42.8 °F 38.0 °F 42.8 °F 100% 30.13 in 8.0 mi SE 8.1 mph - N/A   Mostly Cloudy
11:15 PM 42.8 °F 39.3 °F 42.8 °F 100% 30.13 in 10.0 mi ESE 5.8 mph - N/A   Overcast
11:35 PM 42.8 °F 39.3 °F 42.8 °F 100% 30.12 in 10.0 mi East 5.8 mph - N/A   Overcast
11:55 PM 42.8 °F 39.3 °F 42.8 °F 100% 30.12 in 10.0 mi ESE 5.8 mph - N/A   Overcast